Flight Track Log - Related Links

Times and Time Zones

All times are in EDT time to prevent confusion due to time zone crossing. See the N63981 flight status page for this flight to view local times or setup timezone preferences in your user account.

Time Position Orientation Groundspeed Altitude Reporting Facility
EDT Latitude Longitude Course Direction KTS MPH feet Rate Location/Type
Mon 01:40:12 PM 34.9731 -81.0706 229° Southwest 91 105 1,100  Level Atlanta Center
Mon 01:41:19 PM 34.9547 -81.0967 229° Southwest 96 110 1,800 516 Climbing Atlanta Center
Mon 01:42:20 PM 34.9344 -81.1200 223° Southwest 98 113 2,200 393 Climbing Atlanta Center
Mon 01:43:21 PM 34.9183 -81.1433 230° Southwest 93 107 2,600 443 Climbing Atlanta Center
Mon 01:44:22 PM 34.8981 -81.1669 224° Southwest 91 105 3,100 493 Climbing Atlanta Center
Mon 01:45:35 PM 34.8778 -81.1931 227° Southwest 93 107 3,700 493 Climbing Atlanta Center
Mon 01:46:36 PM 34.8572 -81.2089 212° Southwest 82 94 4,200 443 Climbing Atlanta Center
Mon 01:47:37 PM 34.8411 -81.2269 223° Southwest 80 92 4,600 60 Climbing Atlanta Center
Mon 01:49:00 PM 34.7913 -81.2500 180° South  Level FlightAware Approximate
Mon 01:56:00 PM 34.6066 -81.4631 222° Southwest  Level FlightAware Approximate
Mon 01:57:00 PM 34.5794 -81.4932 222° Southwest  Level FlightAware Approximate
Mon 01:58:00 PM 34.5522 -81.5234 222° Southwest  Level FlightAware Approximate
Mon 01:59:00 PM 34.5249 -81.5536 222° Southwest  Level FlightAware Approximate
Mon 02:00:00 PM 34.4977 -81.5837 222° Southwest  Level FlightAware Approximate
Mon 02:01:00 PM 34.4705 -81.6138 222° Southwest  Level FlightAware Approximate
Mon 02:02:00 PM 34.4432 -81.6439 222° Southwest  Level FlightAware Approximate
Mon 02:03:00 PM 34.4160 -81.6740 222° Southwest  Level FlightAware Approximate
Mon 02:04:00 PM 34.3887 -81.7040 222° Southwest  Level FlightAware Approximate
Mon 02:05:00 PM 34.3615 -81.7341 222° Southwest  Level FlightAware Approximate
Mon 02:06:00 PM 34.3342 -81.7641 222° Southwest  Level FlightAware Approximate
Mon 02:07:00 PM 34.3055 -81.7917 212° Southwest  Level FlightAware Approximate
Mon 02:08:00 PM 34.2741 -81.8152 212° Southwest  Level FlightAware Approximate
Mon 02:09:00 PM 34.2437 -81.8402 222° Southwest  Level FlightAware Approximate
Mon 02:10:00 PM 34.2164 -81.8701 222° Southwest  Level FlightAware Approximate
Mon 02:11:00 PM 34.1891 -81.8999 222° Southwest  Level FlightAware Approximate
Mon 02:12:00 PM 34.1617 -81.9298 222° Southwest  Level FlightAware Approximate
Mon 02:13:00 PM 34.1344 -81.9596 222° Southwest  Level FlightAware Approximate
Mon 02:14:00 PM 34.1070 -81.9894 222° Southwest  Level FlightAware Approximate
Mon 02:15:00 PM 34.0796 -82.0192 222° Southwest  Level FlightAware Approximate
Mon 02:16:00 PM 34.0513 -82.0497 222° Southwest  Level Estimated
Mon 02:17:00 PM 34.0230 -82.0801 222° Southwest  Level Estimated
Mon 02:18:00 PM 33.9946 -82.1105 222° Southwest  Level Estimated
Mon 02:19:00 PM 33.9663 -82.1408 222° Southwest  Level Estimated
Mon 02:20:00 PM 33.9379 -82.1712 222° Southwest  Level Estimated
Mon 02:21:00 PM 33.9095 -82.2015 222° Southwest  Level Estimated
Mon 02:22:00 PM 33.8811 -82.2318 222° Southwest  Level Estimated
Mon 02:23:00 PM 33.8528 -82.2621 222° Southwest  Level Estimated
Mon 02:24:00 PM 33.8244 -82.2924 222° Southwest  Level Estimated
Mon 02:25:00 PM 33.7960 -82.3226 222° Southwest  Level Estimated
Mon 02:26:00 PM 33.7676 -82.3529 221° Southwest  Level Estimated
Mon 02:27:00 PM 33.7392 -82.3831 221° Southwest  Level Estimated
Mon 02:28:00 PM 33.7107 -82.4133 221° Southwest  Level Estimated
Mon 02:29:00 PM 33.6823 -82.4434 221° Southwest  Level Estimated
Mon 02:30:00 PM 33.6539 -82.4736 221° Southwest  Level Estimated
Mon 02:31:00 PM 33.6254 -82.5037 221° Southwest  Level Estimated
Mon 02:32:00 PM 33.5970 -82.5338 221° Southwest  Level Estimated
Mon 02:33:00 PM 33.5685 -82.5639 221° Southwest  Level Estimated
Mon 02:34:00 PM 33.5401 -82.5940 221° Southwest  Level Estimated
Mon 02:35:00 PM 33.5116 -82.6240 221° Southwest  Level Estimated
Mon 02:36:00 PM 33.4831 -82.6541 221° Southwest  Level Estimated
Mon 02:37:00 PM 33.4546 -82.6841 221° Southwest  Level Estimated
Mon 02:38:00 PM 33.4261 -82.7141 221° Southwest  Level Estimated
Mon 02:39:00 PM 33.3976 -82.7440 221° Southwest  Level Estimated
Mon 02:40:00 PM 33.3691 -82.7740 221° Southwest  Level Estimated
Mon 02:41:00 PM 33.3406 -82.8039 221° Southwest  Level Estimated
Mon 02:42:00 PM 33.3121 -82.8338 221° Southwest  Level Estimated
Mon 02:43:00 PM 33.2836 -82.8637 221° Southwest  Level Estimated
Mon 02:44:00 PM 33.2550 -82.8936 221° Southwest  Level Estimated
Mon 02:45:00 PM 33.2265 -82.9234 221° Southwest  Level Estimated
Mon 02:46:00 PM 33.1979 -82.9533 221° Southwest  Level Estimated
Mon 02:47:00 PM 33.1694 -82.9831 221° Southwest  Level Estimated
Mon 02:48:00 PM 33.1408 -83.0129 221° Southwest  Level Estimated
Mon 02:49:00 PM 33.1122 -83.0426 221° Southwest  Level Estimated
Mon 02:49:34 PM 33.3000 -82.7667 221° Southwest 125 144 8,000  Level Atlanta TRACON
Mon 02:50:00 PM 33.0836 -83.0724 221° Southwest  Level Estimated
Mon 02:50:40 PM 33.2667 -82.8000 220° Southwest 127 146 8,000  Level Atlanta TRACON
Mon 02:51:00 PM 33.0550 -83.1021 221° Southwest  Level Estimated
Mon 02:51:40 PM 33.2500 -82.8167 220° Southwest 129 148 8,000  Level Atlanta TRACON
Mon 02:52:00 PM 33.0265 -83.1319 221° Southwest  Level Estimated
Mon 02:52:40 PM 33.2167 -82.8500 220° Southwest 129 148 8,000  Level Atlanta TRACON
Mon 02:53:00 PM 32.9979 -83.1616 221° Southwest  Level Estimated
Mon 02:53:40 PM 33.1833 -82.8833 220° Southwest 130 150 8,000  Level Atlanta TRACON
Mon 02:54:00 PM 32.9692 -83.1912 221° Southwest  Level Estimated
Mon 02:54:40 PM 33.1667 -82.9167 239° Southwest 130 150 8,000  Level Atlanta TRACON
Mon 02:55:34 PM 33.1500 -82.9333 220° Southwest 128 147 8,000 53 Level Atlanta TRACON
Mon 02:56:34 PM 33.1167 -82.9667 220° Southwest 129 148 8,100  Climbing Atlanta TRACON
Mon 02:57:34 PM 33.1000 -83.0000 239° Southwest 128 147 8,000 -50 Descending Atlanta TRACON
Mon 02:58:34 PM 33.0667 -83.0167 203° Southwest 128 147 8,000  Level Atlanta TRACON
Mon 02:59:40 PM 33.0333 -83.0500 220° Southwest 131 151 8,000 48 Level Atlanta TRACON
Mon 03:00:40 PM 33.0000 -83.0833 220° Southwest 128 147 8,100 50 Climbing Atlanta TRACON
Mon 03:01:40 PM 32.9833 -83.1000 220° Southwest 128 147 8,100 -48 Level Atlanta TRACON
Mon 03:02:46 PM 32.9333 -83.1333 209° Southwest 135 155 8,000 -50 Descending Atlanta TRACON
Mon 03:03:40 PM 32.9167 -83.1500 220° Southwest 137 158 8,000  Level Atlanta TRACON
Mon 03:04:40 PM 32.8667 -83.1333 164° South 145 167 8,000  Level Atlanta TRACON
Mon 03:05:34 PM 32.8333 -83.1333 180° South 146 168 8,000 50 Level Atlanta TRACON
Mon 03:06:40 PM 32.7833 -83.1333 180° South 145 167 8,100 48 Climbing Atlanta TRACON
Mon 03:07:40 PM 32.7500 -83.1500 203° Southwest 136 157 8,100  Level Atlanta TRACON
Mon 03:08:40 PM 32.7167 -83.1667 203° Southwest 133 153 8,100 -50 Level Atlanta TRACON
Mon 03:09:40 PM 32.6833 -83.1833 203° Southwest 133 153 8,000 -53 Descending Atlanta TRACON
Mon 03:10:34 PM 32.6667 -83.2000 220° Southwest 133 153 8,000 53 Level Atlanta TRACON
Mon 03:11:34 PM 32.6333 -83.2167 203° Southwest 129 148 8,100  Climbing Atlanta TRACON
Mon 03:12:34 PM 32.6000 -83.2333 203° Southwest 127 146 8,000  Descending Atlanta TRACON
Mon 03:13:34 PM 32.5667 -83.2500 203° Southwest 130 150 8,100  Climbing Atlanta TRACON
Mon 03:14:34 PM 32.5333 -83.2667 203° Southwest 130 150 8,000 -48 Descending Atlanta TRACON
Mon 03:15:40 PM 32.5000 -83.2833 203° Southwest 132 152 8,000  Level Atlanta TRACON
Mon 03:16:40 PM 32.4667 -83.3167 220° Southwest 133 153 8,000 53 Level Atlanta TRACON
Mon 03:17:34 PM 32.4333 -83.3167 180° South 133 153 8,100  Climbing Atlanta TRACON
Mon 03:18:40 PM 32.4000 -83.3500 220° Southwest 133 153 8,000 -48 Descending Atlanta TRACON
Mon 03:19:40 PM 32.3667 -83.3667 203° Southwest 135 155 8,000  Level Atlanta TRACON
Mon 03:20:40 PM 32.3333 -83.3833 203° Southwest 134 154 8,000  Level Atlanta TRACON
Mon 03:21:34 PM 32.3000 -83.4000 203° Southwest 132 152 8,000 53 Level Atlanta TRACON
Mon 03:22:34 PM 32.2667 -83.4167 203° Southwest 134 154 8,100 50 Climbing Atlanta TRACON
Mon 03:23:34 PM 32.2333 -83.4333 203° Southwest 135 155 8,100 -45 Level Atlanta TRACON
Mon 03:24:46 PM 32.1842 -83.4497 196° South 137 158 8,000  Descending Jacksonville Center
Mon 03:25:46 PM 32.1714 -83.4867 248° West 124 143 8,100 50 Climbing Jacksonville Center
Mon 03:26:46 PM 32.1525 -83.5208 237° Southwest 120 138 8,100 -50 Level Jacksonville Center
Mon 03:27:46 PM 32.1189 -83.5425 209° Southwest 125 144 8,000 -50 Descending Jacksonville Center
Mon 03:28:46 PM 32.0814 -83.5544 195° South 131 151 8,000  Level Jacksonville Center
Mon 03:29:46 PM 32.0603 -83.5889 234° Southwest 136 157 8,000  Level Jacksonville Center
Mon 03:30:46 PM 32.0411 -83.6231 237° Southwest 136 157 8,000  Level Jacksonville Center
Mon 03:31:46 PM 32.0222 -83.6594 239° Southwest 136 157 8,000  Level Jacksonville Center
Mon 03:32:46 PM 32.0011 -83.6936 234° Southwest 136 157 8,000  Level Jacksonville Center
Mon 03:33:46 PM 31.9781 -83.7253 229° Southwest 136 157 8,000  Level Jacksonville Center
Mon 03:34:46 PM 31.9547 -83.7569 229° Southwest 131 151 8,000  Level Jacksonville Center
Mon 03:35:46 PM 31.9317 -83.7886 229° Southwest 131 151 8,000  Level Jacksonville Center
Mon 03:36:46 PM 31.9083 -83.8200 229° Southwest 131 151 8,000  Level Jacksonville Center
Mon 03:37:46 PM 31.8894 -83.8542 237° Southwest 131 151 8,000  Level Jacksonville Center
Mon 03:38:46 PM 31.8661 -83.8858 229° Southwest 131 151 8,000  Level Jacksonville Center
Mon 03:39:46 PM 31.8431 -83.9147 227° Southwest 131 151 8,000  Level Jacksonville Center
Mon 03:40:46 PM 31.8219 -83.9464 232° Southwest 131 151 8,000  Level Jacksonville Center
Mon 03:41:46 PM 31.7986 -83.9778 229° Southwest 131 151 8,000 50 Level Jacksonville Center
Mon 03:42:46 PM 31.7775 -84.0119 234° Southwest 131 151 8,100 50 Climbing Jacksonville Center
Mon 03:43:46 PM 31.7542 -84.0458 231° Southwest 131 151 8,100 -50 Level Jacksonville Center
Mon 03:44:46 PM 31.7372 -84.0822 241° Southwest 136 157 8,000 -50 Descending Jacksonville Center
Mon 03:45:46 PM 31.7450 -84.1214 283° West 122 140 8,000  Level Jacksonville Center
Mon 03:46:46 PM 31.7550 -84.1631 286° West 127 146 8,000  Level Jacksonville Center
Mon 03:47:46 PM 31.7631 -84.2097 281° West 133 153 8,000  Level Jacksonville Center
Mon 03:48:46 PM 31.7689 -84.2489 280° West 133 153 8,000  Level Jacksonville Center
Mon 03:49:46 PM 31.7789 -84.2906 286° West 133 153 8,000  Level Jacksonville Center
Mon 03:50:46 PM 31.7889 -84.3322 286° West 133 153 8,000  Level Jacksonville Center
Mon 03:51:46 PM 31.7967 -84.3764 282° West 133 153 8,000  Level Jacksonville Center
Mon 03:52:46 PM 31.8044 -84.4156 283° West 133 153 8,000  Level Jacksonville Center
Mon 03:53:46 PM 31.8103 -84.4597 279° West 138 159 8,000  Level Jacksonville Center
Mon 03:54:46 PM 31.8181 -84.5039 282° West 138 159 8,000  Level Jacksonville Center
Mon 03:55:46 PM 31.8239 -84.5456 279° West 138 159 8,000  Level Jacksonville Center
Mon 03:56:46 PM 31.8233 -84.5869 269° West 133 153 8,000  Level Jacksonville Center
Mon 03:57:46 PM 31.8186 -84.6286 262° West 133 153 8,000  Level Jacksonville Center
Mon 03:58:46 PM 31.8097 -84.6700 256° West 133 153 8,000  Level Jacksonville Center
Mon 03:59:15 PM 31.8050 -84.6894 254° West 127 146 8,000  Level Jacksonville Center
Mon 03:59:46 PM 31.7944 -84.7064 234° Southwest 133 153 8,000  Level Jacksonville Center
Mon 04:00:16 PM 31.7858 -84.7281 245° Southwest 131 151 8,000  Level Jacksonville Center
Mon 04:00:46 PM 31.7731 -84.7400 218° Southwest 133 153 8,000 109 Level Jacksonville Center
Mon 04:01:11 PM 31.7603 -84.7544 224° Southwest 140 161 8,100  Climbing Jacksonville Center
Mon 04:01:46 PM 31.7433 -84.7711 220° Southwest 133 153 8,000 -90 Descending Jacksonville Center
Mon 04:02:18 PM 31.7286 -84.7906 228° Southwest 142 163 8,000  Level Jacksonville Center
Mon 04:02:46 PM 31.7094 -84.7997 202° Southwest 144 166 8,000  Level Jacksonville Center
Mon 04:03:19 PM 31.6928 -84.8142 216° Southwest 149 171 8,000  Level Jacksonville Center
Mon 04:03:46 PM 31.6758 -84.8261 211° Southwest 151 174 8,000  Level Jacksonville Center
Mon 04:04:13 PM 31.6589 -84.8403 215° Southwest 149 171 8,000 100 Level Jacksonville Center
Mon 04:04:46 PM 31.6419 -84.8522 211° Southwest 151 174 8,100  Climbing Jacksonville Center
Mon 04:05:14 PM 31.6272 -84.8639 214° Southwest 143 165 8,000  Descending Jacksonville Center
Mon 04:05:46 PM 31.6081 -84.8783 213° Southwest 151 174 8,100  Climbing Jacksonville Center
Mon 04:06:15 PM 31.5953 -84.8928 224° Southwest 143 165 8,000  Descending Jacksonville Center
Mon 04:06:46 PM 31.5744 -84.9019 201° Southwest 151 174 8,100  Climbing Jacksonville Center
Mon 04:07:16 PM 31.5594 -84.9186 223° Southwest 145 167 8,000  Descending Jacksonville Center
Mon 04:07:46 PM 31.5364 -84.9278 199° South 151 174 8,100  Climbing Jacksonville Center
Mon 04:08:17 PM 31.5236 -84.9422 224° Southwest 149 171 8,000  Descending Jacksonville Center
Mon 04:08:46 PM 31.5067 -84.9542 211° Southwest 151 174 8,100  Climbing Jacksonville Center
Mon 04:09:18 PM 31.4897 -84.9708 220° Southwest 148 170 8,000 -65 Descending Jacksonville Center
Mon 04:10:19 PM 31.4539 -84.9967 212° Southwest 149 171 8,000  Level Jacksonville Center
Mon 04:11:19 PM 31.4200 -85.0253 216° Southwest 144 166 8,000  Level Jacksonville Center
Mon 04:12:20 PM 31.3861 -85.0511 213° Southwest 140 161 8,000  Level Jacksonville Center
Mon 04:13:27 PM 31.3500 -85.0794 214° Southwest 139 160 8,000  Level Jacksonville Center
Mon 04:14:28 PM 31.3183 -85.1031 212° Southwest 140 161 8,000  Level Jacksonville Center
Mon 04:15:29 PM 31.2844 -85.1292 213° Southwest 141 162 8,000  Level Jacksonville Center
Mon 04:16:36 PM 31.2464 -85.1572 212° Southwest 141 162 8,000  Level Jacksonville Center
Mon 04:17:31 PM 31.2169 -85.1808 214° Southwest 147 169 8,000  Level Jacksonville Center
Mon 04:18:31 PM 31.1850 -85.2069 215° Southwest 147 169 8,000  Level Jacksonville Center
Mon 04:19:32 PM 31.1469 -85.2325 210° Southwest 146 168 8,000  Level Jacksonville Center
Mon 04:20:33 PM 31.1131 -85.2583 213° Southwest 146 168 8,000  Level Jacksonville Center
Mon 04:22:00 PM 31.0701 -85.2899 212° Southwest  Level FlightAware Approximate
Mon 04:29:00 PM 30.8626 -85.4421 212° Southwest  Level FlightAware Approximate
Mon 04:30:00 PM 30.8329 -85.4638 212° Southwest  Level FlightAware Approximate
Mon 04:31:00 PM 30.8033 -85.4854 212° Southwest  Level FlightAware Approximate
Mon 04:32:00 PM 30.7726 -85.5054 203° Southwest  Level FlightAware Approximate
Mon 04:33:00 PM 30.7404 -85.5215 203° Southwest  Level FlightAware Approximate
Mon 04:34:00 PM 30.7092 -85.5396 216° Southwest  Level FlightAware Approximate
Mon 04:35:00 PM 30.6808 -85.5633 216° Southwest  Level FlightAware Approximate
Mon 04:36:00 PM 30.6523 -85.5870 216° Southwest  Level FlightAware Approximate
Mon 04:37:00 PM 30.6238 -85.6107 216° Southwest  Level FlightAware Approximate
Mon 04:38:00 PM 30.5940 -85.6318 210° Southwest  Level FlightAware Approximate
Mon 04:39:00 PM 30.5636 -85.6521 210° Southwest  Level FlightAware Approximate
Mon 04:40:00 PM 30.5332 -85.6724 210° Southwest  Level FlightAware Approximate
Mon 04:41:00 PM 30.5029 -85.6926 210° Southwest  Level FlightAware Approximate
Mon 04:42:00 PM 30.4725 -85.7128 210° Southwest  Level FlightAware Approximate
Mon 04:43:00 PM 30.4421 -85.7330 210° Southwest  Level FlightAware Approximate
Mon 04:44:00 PM 30.4115 -85.7526 203° Southwest  Level FlightAware Approximate
Mon 04:45:00 PM 30.3793 -85.7687 203° Southwest  Level FlightAware Approximate
Mon 04:46:00 PM 30.3500 -85.7833 203° Southwest  Level FlightAware Approximate
Mon 04:47:00 PM 30.3582 -85.7956 203° Southwest  Level Estimated
Mon 04:48:00 PM 30.3582 -85.7956 203° Southwest  Level Estimated
Mon 04:49:00 PM 30.3582 -85.7956 203° Southwest  Level Estimated

Login

Don't have an account? Register now (free) for customized features, flight alerts, and more!